SFQ weather

Şanlıurfa Airport
Şanlıurfa, Şanlıurfa Province, Turkey

Public forecast

Using degrees Celsius for public forecast. Weather courtesy of forecast.io.

Closest aviation weather report (METAR) to Şanlıurfa Airport

Closest report is Şanlıurfa GAP Airport, 21.2 nm (39.3 km) N. Retrieved 2019/12/12 13:20 UTC (4 minutes ago):

LTCS 121320Z 06011KT 7000 -RA FEW004 SCT025 BKN090 06/06 Q1014 RMK RWY22 08013KT

Closest aviation forecast (TAF) to Şanlıurfa Airport

Closest forecast is Şanlıurfa GAP Airport, 21.2 nm (39.3 km) N. Retrieved 2019/12/12 12:00 UTC (1 hour ago):

TAF LTCS 121040Z 1212/1312 06012KT 4000 -RA BR BKN004 BKN020 TEMPO 1212/1216 2000 BKN002 BKN016 PROB40 TEMPO 1216/1220 2000 BKN002 BKN016